Time;durP1;ratioP1;P1;durP2;ratioP2;P2;SDS_P1;SDS_P2;PMS_P1;PMS_P2;Temp;Humidity;BMP_temperature;BMP_pressure;BME280_temperature;BME280_humidity;BME280_pressure;Samples;Min_cycle;Max_cycle;Signal;HPM_P1;HPM_P2
2023/04/04 00:00:23;;;;;;;8.65;2.53;;;;;;;-0.73;71.46;100460.75;5098163;28;20019;-60
2023/04/04 00:02:48;;;;;;;8.20;2.55;;;;;;;-0.84;71.68;100457.47;5092960;28;20019;-60
2023/04/04 00:05:14;;;;;;;5.63;2.08;;;;;;;-0.84;74.45;100455.66;5094339;28;20093;-60
2023/04/04 00:07:39;;;;;;;4.25;2.38;;;;;;;-1.05;73.02;100449.66;5095809;28;20068;-58
2023/04/04 00:10:05;;;;;;;3.88;2.33;;;;;;;-1.19;73.43;100443.84;5097949;28;20062;-60
2023/04/04 00:12:31;;;;;;;7.75;2.70;;;;;;;-1.27;75.08;100448.97;5096542;28;20027;-60
2023/04/04 00:14:56;;;;;;;4.57;2.42;;;;;;;-1.39;75.06;100442.16;5092641;28;20048;-60
2023/04/04 00:17:22;;;;;;;4.60;2.55;;;;;;;-1.37;76.37;100448.13;5098845;28;20019;-60
2023/04/04 00:19:47;;;;;;;6.85;2.40;;;;;;;-1.23;73.23;100446.88;5099453;28;20050;-60
2023/04/04 00:22:13;;;;;;;5.85;2.40;;;;;;;-1.35;73.48;100444.41;5096248;28;20024;-60
2023/04/04 00:24:38;;;;;;;6.43;2.38;;;;;;;-1.28;75.33;100446.47;5095535;28;20028;-58
2023/04/04 00:27:04;;;;;;;3.13;2.00;;;;;;;-1.44;74.64;100449.63;5094233;28;20430;-58
2023/04/04 00:29:30;;;;;;;5.07;2.78;;;;;;;-1.56;76.75;100452.34;5086260;28;20031;-58
2023/04/04 00:31:55;;;;;;;5.43;2.58;;;;;;;-1.63;76.73;100451.22;5090057;28;20478;-59
2023/04/04 00:34:21;;;;;;;8.68;2.47;;;;;;;-1.72;76.66;100454.66;5102785;28;20024;-59
2023/04/04 00:36:47;;;;;;;6.60;2.45;;;;;;;-1.86;77.46;100455.84;5097457;28;20023;-59
2023/04/04 00:39:13;;;;;;;10.43;3.40;;;;;;;-1.89;78.57;100444.78;5096728;28;20035;-59
2023/04/04 00:41:38;;;;;;;5.28;2.75;;;;;;;-2.03;78.98;100449.41;5097171;28;20019;-59
2023/04/04 00:44:04;;;;;;;4.95;2.50;;;;;;;-1.98;78.97;100443.75;5095055;28;20346;-58
2023/04/04 00:46:29;;;;;;;4.10;2.47;;;;;;;-2.03;79.18;100449.41;5096559;28;20040;-58
2023/04/04 00:48:55;;;;;;;4.90;2.50;;;;;;;-2.03;79.48;100453.84;5092908;28;20040;-59
2023/04/04 00:51:20;;;;;;;4.70;2.50;;;;;;;-1.99;78.65;100450.81;5096559;28;20031;-58
2023/04/04 00:53:46;;;;;;;4.20;2.20;;;;;;;-2.01;78.62;100442.22;5099767;28;20100;-59
2023/04/04 00:56:12;;;;;;;2.63;1.92;;;;;;;-1.92;79.94;100439.78;5092227;28;20055;-58
2023/04/04 00:58:37;;;;;;;5.45;2.35;;;;;;;-1.87;79.11;100445.47;5081894;28;20024;-58
2023/04/04 01:01:03;;;;;;;4.88;2.38;;;;;;;-1.76;79.66;100445.38;5098825;28;20024;-58
2023/04/04 01:03:29;;;;;;;4.32;2.10;;;;;;;-1.88;78.21;100435.91;5096497;28;20024;-59
2023/04/04 01:05:55;;;;;;;7.68;2.28;;;;;;;-1.87;80.25;100432.31;5095568;28;20031;-58
2023/04/04 01:08:22;;;;;;;4.80;2.00;;;;;;;-1.87;78.25;100442.81;5100015;28;20027;-58
2023/04/04 01:10:47;;;;;;;8.13;2.47;;;;;;;-1.97;78.98;100442.81;5060075;28;20047;-58
2023/04/04 01:13:16;;;;;;;4.72;2.28;;;;;;;-2.08;82.29;100435.84;5093502;28;20031;-58
2023/04/04 01:15:41;;;;;;;4.00;2.20;;;;;;;-2.27;81.88;100433.09;5079663;28;20542;-58
2023/04/04 01:18:07;;;;;;;6.38;2.30;;;;;;;-2.41;82.06;100434.28;5092369;28;20080;-58
2023/04/04 01:20:33;;;;;;;5.10;2.40;;;;;;;-2.48;82.81;100433.13;5096135;28;20032;-59
2023/04/04 01:22:58;;;;;;;4.88;2.92;;;;;;;-2.31;83.91;100436.97;5090438;28;20058;-58
2023/04/04 01:25:33;;;;;;;7.13;2.25;;;;;;;-2.33;81.44;100431.00;5092222;28;20110;-59
2023/04/04 01:27:59;;;;;;;4.28;2.42;;;;;;;-2.42;82.83;100428.22;5098821;28;20035;-60
2023/04/04 01:30:26;;;;;;;5.25;2.40;;;;;;;-2.36;82.35;100426.03;5100764;28;20059;-60
2023/04/04 01:33:01;;;;;;;4.07;2.15;;;;;;;-2.04;81.46;100429.38;5097819;28;20511;-60
2023/04/04 01:35:42;;;;;;;6.13;2.80;;;;;;;-2.07;80.61;100432.25;5087566;28;20088;-58
2023/04/04 01:38:14;;;;;;;9.73;2.80;;;;;;;-2.02;82.49;100427.44;5100169;28;20056;-58
2023/04/04 01:40:40;;;;;;;8.23;3.33;;;;;;;-2.00;82.74;100425.53;5099133;28;20384;-58
2023/04/04 01:43:06;;;;;;;8.65;3.33;;;;;;;-1.85;84.61;100425.13;5095094;28;20024;-58
2023/04/04 01:45:32;;;;;;;5.95;2.60;;;;;;;-1.97;83.02;100432.31;5091773;28;20050;-58
2023/04/04 01:47:58;;;;;;;8.48;2.83;;;;;;;-2.13;82.84;100422.25;5093170;28;20035;-58
2023/04/04 01:50:23;;;;;;;6.55;2.50;;;;;;;-1.93;87.76;100423.19;5095541;28;20025;-60
2023/04/04 01:52:51;;;;;;;4.60;2.63;;;;;;;-2.29;82.65;100424.56;5094647;28;20532;-58
2023/04/04 01:55:17;;;;;;;10.43;3.15;;;;;;;-2.50;83.65;100420.13;5089257;28;20035;-58
2023/04/04 01:57:42;;;;;;;5.50;2.40;;;;;;;-2.68;83.81;100425.13;5091600;28;20028;-60
2023/04/04 02:00:08;;;;;;;5.18;2.53;;;;;;;-2.04;91.55;100421.47;5094947;28;20024;-58
2023/04/04 02:02:34;;;;;;;6.18;2.80;;;;;;;-2.25;82.75;100418.06;5095473;28;20425;-58
2023/04/04 02:04:59;;;;;;;8.82;3.13;;;;;;;-1.87;87.39;100421.81;5090828;28;20118;-58
2023/04/04 02:07:25;;;;;;;4.43;2.70;;;;;;;-1.90;87.89;100422.06;5096435;28;20029;-58
2023/04/04 02:09:50;;;;;;;5.72;2.75;;;;;;;-2.01;89.27;100423.84;5084464;28;20043;-58
2023/04/04 02:12:18;;;;;;;5.53;2.53;;;;;;;-2.32;83.34;100427.41;5091911;28;20024;-58
2023/04/04 02:14:44;;;;;;;6.50;2.17;;;;;;;-1.92;93.27;100418.75;5088835;28;20032;-59
2023/04/04 02:17:09;;;;;;;8.95;2.90;;;;;;;-1.83;93.16;100428.47;5092965;28;20479;-60
2023/04/04 02:19:35;;;;;;;7.03;2.55;;;;;;;-2.15;85.92;100421.56;5099572;28;20093;-59
2023/04/04 02:22:00;;;;;;;4.35;2.60;;;;;;;-2.17;88.58;100426.13;5100534;28;20032;-60
2023/04/04 02:24:25;;;;;;;5.07;2.80;;;;;;;-2.36;88.33;100426.03;5098835;28;20043;-59
2023/04/04 02:26:51;;;;;;;5.80;2.47;;;;;;;-2.55;89.34;100427.56;5100919;28;20031;-59
2023/04/04 02:29:16;;;;;;;4.95;2.25;;;;;;;-2.75;88.27;100425.75;5103770;28;20081;-60
2023/04/04 02:31:42;;;;;;;5.93;2.33;;;;;;;-2.76;90.95;100424.13;5105109;28;20039;-59
2023/04/04 02:34:07;;;;;;;6.78;2.75;;;;;;;-2.75;92.90;100426.59;5104613;28;20346;-60
2023/04/04 02:36:33;;;;;;;4.05;2.63;;;;;;;-2.80;90.20;100423.50;5094108;28;20039;-60
2023/04/04 02:38:59;;;;;;;4.20;2.53;;;;;;;-2.82;89.60;100423.66;5096164;28;20031;-59
2023/04/04 02:41:25;;;;;;;3.95;2.45;;;;;;;-2.87;89.22;100420.59;5096473;28;20035;-60
2023/04/04 02:43:50;;;;;;;5.20;2.70;;;;;;;-2.90;90.01;100418.19;5093355;28;20023;-59
2023/04/04 02:46:16;;;;;;;4.95;2.88;;;;;;;-2.90;90.78;100418.19;5095059;28;20447;-60
2023/04/04 02:48:42;;;;;;;5.03;2.88;;;;;;;-3.03;89.51;100423.63;5095606;28;20030;-60
2023/04/04 02:51:07;;;;;;;7.90;2.63;;;;;;;-3.08;91.32;100422.34;5100816;28;20024;-59
2023/04/04 02:53:33;;;;;;;7.20;3.28;;;;;;;-3.05;91.05;100424.69;5098559;28;20475;-59
2023/04/04 02:55:58;;;;;;;6.07;2.70;;;;;;;-3.16;90.87;100422.13;5099917;28;20032;-59
2023/04/04 02:58:24;;;;;;;5.43;2.65;;;;;;;-3.17;92.65;100417.84;5080361;28;20084;-59
2023/04/04 03:00:54;;;;;;;7.93;2.65;;;;;;;-3.12;92.21;100418.28;5101827;28;20031;-59
2023/04/04 03:03:19;;;;;;;10.43;3.38;;;;;;;-2.90;93.05;100415.56;5098765;28;20027;-59
2023/04/04 03:05:45;;;;;;;8.20;3.10;;;;;;;-2.77;92.34;100417.19;5094898;28;20336;-59
2023/04/04 03:08:10;;;;;;;7.18;2.67;;;;;;;-2.62;93.58;100416.75;5102376;28;20031;-59
2023/04/04 03:10:36;;;;;;;6.43;3.17;;;;;;;-2.73;93.17;100405.47;5094042;28;20020;-59
2023/04/04 03:13:01;;;;;;;7.07;3.92;;;;;;;-2.57;96.22;100405.88;5096122;28;20700;-59
2023/04/04 03:15:27;;;;;;;7.40;3.60;;;;;;;-2.67;95.22;100402.34;5093050;28;20044;-59
2023/04/04 03:17:52;;;;;;;4.90;2.65;;;;;;;-2.97;92.65;100400.47;5102104;28;20024;-59
2023/04/04 03:20:18;;;;;;;7.28;3.25;;;;;;;-2.76;95.89;100397.88;5100910;28;20577;-59
2023/04/04 03:22:43;;;;;;;7.88;3.05;;;;;;;-2.72;94.88;100399.25;5098123;28;20016;-59
2023/04/04 03:25:09;;;;;;;4.68;2.50;;;;;;;-2.75;96.98;100389.84;5095808;28;20032;-59
2023/04/04 03:27:34;;;;;;;6.85;3.45;;;;;;;-2.96;93.04;100395.09;5095622;28;20034;-59
2023/04/04 03:30:00;;;;;;;6.22;3.05;;;;;;;-3.29;91.35;100393.47;5099549;28;20023;-59
2023/04/04 03:32:26;;;;;;;11.40;4.05;;;;;;;-3.01;93.70;100384.16;5094635;28;20036;-59
2023/04/04 03:34:51;;;;;;;8.15;3.40;;;;;;;-2.63;98.19;100377.50;5092389;28;20119;-59
2023/04/04 03:37:17;;;;;;;6.93;3.58;;;;;;;-3.08;90.68;100377.75;5090711;28;20062;-59
2023/04/04 03:39:42;;;;;;;9.38;3.78;;;;;;;-2.87;95.35;100370.75;5096340;28;20024;-59
2023/04/04 03:42:08;;;;;;;8.35;3.50;;;;;;;-2.87;96.26;100373.34;5100574;28;20466;-59
2023/04/04 03:44:33;;;;;;;7.03;2.95;;;;;;;-2.66;95.88;100373.34;5096392;28;20032;-59
2023/04/04 03:46:59;;;;;;;6.65;2.40;;;;;;;-2.53;92.76;100372.31;5092669;28;20444;-59
2023/04/04 03:49:24;;;;;;;6.63;3.03;;;;;;;-2.56;91.77;100373.41;5098174;28;20084;-59
2023/04/04 03:51:50;;;;;;;5.53;2.70;;;;;;;-2.87;86.72;100375.97;5096602;28;20478;-59
2023/04/04 03:54:16;;;;;;;6.22;2.65;;;;;;;-2.98;86.94;100369.94;5099707;28;20502;-59
2023/04/04 03:56:41;;;;;;;8.27;2.80;;;;;;;-3.08;88.17;100372.50;5096868;28;20302;-59
2023/04/04 03:59:07;;;;;;;7.63;3.03;;;;;;;-3.18;88.73;100385.53;5093656;28;20313;-59
2023/04/04 04:01:33;;;;;;;5.97;2.67;;;;;;;-3.37;88.04;100378.34;5097185;28;20031;-59
2023/04/04 04:04:00;;;;;;;5.85;2.67;;;;;;;-3.44;89.91;100385.03;5095076;28;20032;-59
2023/04/04 04:06:25;;;;;;;7.82;2.80;;;;;;;-3.38;91.12;100381.91;5093116;28;20032;-59
2023/04/04 04:08:51;;;;;;;7.95;2.75;;;;;;;-3.22;90.79;100385.91;5095608;28;20028;-59
2023/04/04 04:11:16;;;;;;;8.93;2.80;;;;;;;-3.11;89.81;100391.13;5100373;28;20109;-59
2023/04/04 04:13:42;;;;;;;6.05;3.03;;;;;;;-3.12;91.05;100386.81;5100280;28;20034;-61
2023/04/04 04:16:07;;;;;;;6.88;2.97;;;;;;;-3.22;91.43;100384.16;5089288;28;20081;-59
2023/04/04 04:18:33;;;;;;;6.57;3.15;;;;;;;-3.34;90.85;100378.09;5096019;28;20038;-59
2023/04/04 04:20:58;;;;;;;5.65;3.20;;;;;;;-3.14;90.59;100378.25;5097132;28;20085;-59
2023/04/04 04:23:24;;;;;;;5.65;2.80;;;;;;;-3.11;89.67;100375.38;5100074;28;20032;-59
2023/04/04 04:25:50;;;;;;;7.35;3.20;;;;;;;-3.07;90.36;100371.53;5097114;28;20092;-59
2023/04/04 04:28:15;;;;;;;5.22;2.45;;;;;;;-3.09;91.37;100376.09;5097387;28;20023;-58
2023/04/04 04:30:41;;;;;;;6.15;3.75;;;;;;;-3.08;89.53;100372.50;5097181;28;20034;-58
2023/04/04 04:33:07;;;;;;;8.70;3.22;;;;;;;-3.04;88.81;100379.19;5091567;28;20419;-58
2023/04/04 04:35:36;;;;;;;10.55;3.13;;;;;;;-3.03;90.58;100380.81;5097379;28;20035;-58
2023/04/04 04:38:05;;;;;;;8.85;3.38;;;;;;;-3.22;89.76;100385.91;5097177;28;20043;-58
2023/04/04 04:40:30;;;;;;;7.68;3.28;;;;;;;-3.16;92.27;100390.66;5097061;28;20644;-58
2023/04/04 04:42:55;;;;;;;8.93;3.55;;;;;;;-3.03;91.75;100391.31;5090512;28;20379;-59
2023/04/04 04:45:21;;;;;;;9.02;3.30;;;;;;;-3.05;89.67;100398.47;5094497;28;20016;-61
2023/04/04 04:47:46;;;;;;;4.85;3.03;;;;;;;-3.04;88.88;100381.78;5101028;28;20023;-59
2023/04/04 04:50:12;;;;;;;6.28;3.28;;;;;;;-3.12;88.12;100390.28;5097733;28;20044;-59
2023/04/04 04:52:37;;;;;;;5.20;3.10;;;;;;;-2.89;91.48;100387.56;5097040;28;20024;-59
2023/04/04 04:55:04;;;;;;;9.80;3.22;;;;;;;-2.88;89.99;100384.78;5093486;28;20416;-60
2023/04/04 04:57:29;;;;;;;10.88;3.60;;;;;;;-2.87;90.23;100373.34;5095261;28;20100;-59
2023/04/04 04:59:55;;;;;;;11.98;3.72;;;;;;;-3.00;87.09;100375.31;5084615;28;20031;-60
2023/04/04 05:02:20;;;;;;;8.38;3.67;;;;;;;-3.23;87.21;100374.59;5100611;28;20035;-59
2023/04/04 05:04:46;;;;;;;7.65;4.32;;;;;;;-3.38;89.07;100374.06;5091552;28;20028;-59
2023/04/04 05:07:11;;;;;;;10.48;4.63;;;;;;;-3.35;89.06;100376.41;5095840;28;20043;-60
2023/04/04 05:09:37;;;;;;;7.47;3.53;;;;;;;-3.27;90.13;100378.41;5088240;28;20035;-60
2023/04/04 05:12:03;;;;;;;8.68;3.75;;;;;;;-3.18;89.84;100384.72;5099344;28;20019;-59
2023/04/04 05:14:28;;;;;;;9.40;4.90;;;;;;;-3.09;91.01;100381.34;5099889;28;20100;-59
2023/04/04 05:16:54;;;;;;;7.88;4.03;;;;;;;-3.16;88.64;100390.66;5099208;28;20478;-60
2023/04/04 05:19:19;;;;;;;8.07;4.18;;;;;;;-3.15;87.71;100381.84;5091490;28;20051;-61
2023/04/04 05:21:45;;;;;;;9.07;4.40;;;;;;;-3.42;88.61;100384.91;5095712;28;20027;-60
2023/04/04 05:24:10;;;;;;;6.97;3.80;;;;;;;-3.10;89.24;100380.47;5094760;28;20093;-59
2023/04/04 05:26:35;;;;;;;8.88;4.47;;;;;;;-2.79;90.20;100385.84;5095449;28;20035;-60
2023/04/04 05:29:01;;;;;;;7.70;3.40;;;;;;;-2.39;91.36;100370.19;5097648;28;20016;-60
2023/04/04 05:31:26;;;;;;;7.40;3.72;;;;;;;-1.94;90.20;100374.22;5100735;28;20400;-59
2023/04/04 05:33:52;;;;;;;8.38;3.85;;;;;;;-2.03;84.21;100383.72;5095012;28;20389;-59
2023/04/04 05:36:18;;;;;;;6.95;3.97;;;;;;;-1.77;83.75;100385.91;5101385;28;20028;-59
2023/04/04 05:38:43;;;;;;;6.78;3.65;;;;;;;-1.25;80.67;100390.94;5096156;28;20027;-59
2023/04/04 05:41:09;;;;;;;10.82;3.80;;;;;;;-0.99;83.49;100381.53;5098173;28;20045;-61
2023/04/04 05:43:35;;;;;;;7.13;4.07;;;;;;;-0.92;78.52;100385.28;5096521;28;20120;-60
2023/04/04 05:46:00;;;;;;;6.95;3.63;;;;;;;-0.72;78.41;100388.72;5097002;28;20340;-60
2023/04/04 05:48:26;;;;;;;9.77;4.38;;;;;;;-0.50;76.39;100394.63;5097596;28;20027;-60
2023/04/04 05:50:51;;;;;;;6.45;4.03;;;;;;;0.13;78.10;100384.28;5093244;28;20024;-60
2023/04/04 05:53:17;;;;;;;8.90;4.45;;;;;;;1.25;68.98;100386.53;5093815;28;20039;-60
2023/04/04 05:55:42;;;;;;;11.82;4.53;;;;;;;2.57;66.70;100387.97;5096082;28;20038;-60
2023/04/04 05:58:08;;;;;;;7.47;4.22;;;;;;;3.54;62.18;100385.53;5095826;28;20748;-60
2023/04/04 06:00:33;;;;;;;11.07;3.83;;;;;;;3.65;57.15;100388.66;5090693;28;20114;-60
2023/04/04 06:03:01;;;;;;;9.75;4.32;;;;;;;3.66;56.84;100390.31;5101927;28;20651;-60
2023/04/04 06:05:27;;;;;;;10.63;5.13;;;;;;;2.62;58.68;100380.41;5099356;28;20027;-60
2023/04/04 06:07:52;;;;;;;6.78;4.15;;;;;;;2.74;61.53;100389.66;5084792;28;20028;-60
2023/04/04 06:10:18;;;;;;;7.22;4.28;;;;;;;3.83;61.82;100393.75;5093818;28;20401;-60
2023/04/04 06:12:43;;;;;;;9.80;4.00;;;;;;;3.28;58.01;100393.69;5103527;28;20014;-60
2023/04/04 06:15:09;;;;;;;7.90;4.05;;;;;;;3.35;59.69;100389.38;5097231;28;20035;-60
2023/04/04 06:17:35;;;;;;;8.05;4.10;;;;;;;3.73;56.94;100400.25;5099025;27;20050;-60
2023/04/04 06:20:00;;;;;;;8.27;4.00;;;;;;;4.61;55.05;100399.22;5096948;28;20031;-60
2023/04/04 06:22:25;;;;;;;10.95;4.20;;;;;;;5.33;53.09;100398.88;5104510;28;20036;-58
2023/04/04 06:24:51;;;;;;;9.43;4.03;;;;;;;6.01;50.70;100407.69;5099364;28;20058;-60
2023/04/04 06:27:16;;;;;;;8.45;3.72;;;;;;;7.80;47.02;100402.53;5099044;28;20411;-61
2023/04/04 06:29:42;;;;;;;8.32;3.63;;;;;;;9.36;43.64;100410.69;5086517;28;20437;-61
2023/04/04 06:32:08;;;;;;;8.77;4.03;;;;;;;8.97;43.49;100409.63;5097863;28;20386;-60
2023/04/04 06:34:33;;;;;;;10.50;3.05;;;;;;;8.61;43.40;100410.75;5101456;28;20395;-60
2023/04/04 06:36:59;;;;;;;9.75;3.35;;;;;;;8.32;43.81;100402.00;5094083;28;20371;-60
2023/04/04 06:39:24;;;;;;;8.65;4.25;;;;;;;8.29;44.61;100413.09;5102232;28;20019;-59
2023/04/04 06:41:50;;;;;;;11.77;3.60;;;;;;;8.63;44.05;100422.09;5097102;28;20320;-61
2023/04/04 06:44:15;;;;;;;7.03;3.13;;;;;;;8.35;44.46;100425.63;5100463;28;20051;-60
2023/04/04 06:46:41;;;;;;;6.93;3.10;;;;;;;8.78;44.00;100429.94;5099683;28;20490;-59
2023/04/04 06:49:06;;;;;;;11.13;3.50;;;;;;;9.04;43.52;100431.88;5098090;28;20034;-60
2023/04/04 06:51:35;;;;;;;8.40;2.92;;;;;;;8.40;44.21;100433.91;5092877;28;20075;-58
2023/04/04 06:54:01;;;;;;;14.40;3.40;;;;;;;9.70;42.25;100439.09;5084623;28;20039;-59
2023/04/04 06:56:27;;;;;;;9.18;3.42;;;;;;;9.72;42.81;100440.53;5097174;28;20806;-60
2023/04/04 06:58:52;;;;;;;13.40;3.13;;;;;;;9.43;43.77;100452.47;5100507;28;20024;-60
2023/04/04 07:01:17;;;;;;;8.38;3.30;;;;;;;9.91;42.78;100443.44;5094184;28;20105;-60
2023/04/04 07:03:46;;;;;;;11.23;3.45;;;;;;;9.29;43.83;100446.31;5094120;28;20032;-60
2023/04/04 07:06:11;;;;;;;11.95;3.55;;;;;;;9.59;43.32;100445.09;5100019;28;20047;-60
2023/04/04 07:08:36;;;;;;;20.27;3.47;;;;;;;9.60;43.42;100442.19;5092876;28;20054;-59
2023/04/04 07:11:02;;;;;;;10.82;3.95;;;;;;;9.71;43.25;100438.09;5093036;28;20040;-62
2023/04/04 07:13:28;;;;;;;17.75;4.22;;;;;;;9.16;44.47;100440.94;5103218;28;20032;-61
2023/04/04 07:15:54;;;;;;;17.08;4.00;;;;;;;8.96;44.37;100445.41;5093480;28;20071;-60
2023/04/04 07:18:19;;;;;;;9.50;3.45;;;;;;;8.46;44.20;100445.66;5095577;28;20023;-60
2023/04/04 07:20:45;;;;;;;7.85;3.60;;;;;;;8.90;42.56;100446.22;5095307;28;20024;-60
2023/04/04 07:23:11;;;;;;;17.75;4.20;;;;;;;9.38;43.82;100443.44;5099216;28;20461;-61
2023/04/04 07:25:37;;;;;;;5.88;3.30;;;;;;;8.87;42.07;100436.75;5103258;28;20031;-62
2023/04/04 07:28:02;;;;;;;8.73;3.00;;;;;;;9.08;42.69;100449.16;5090716;28;20028;-61
2023/04/04 07:30:31;;;;;;;8.30;3.65;;;;;;;9.29;42.03;100446.31;5094460;28;20409;-59
2023/04/04 07:33:00;;;;;;;6.20;3.25;;;;;;;8.18;42.46;100448.34;5098180;28;20023;-62
2023/04/04 07:35:25;;;;;;;9.55;3.33;;;;;;;7.13;45.04;100442.00;5094724;28;20441;-61
2023/04/04 07:37:51;;;;;;;5.78;3.33;;;;;;;6.82;46.20;100452.97;5089936;28;20031;-60
2023/04/04 07:40:17;;;;;;;6.40;3.33;;;;;;;6.80;46.66;100444.34;5095984;28;20020;-60
2023/04/04 07:42:45;;;;;;;9.75;3.80;;;;;;;6.56;47.28;100454.28;5101340;28;20020;-60
2023/04/04 07:45:12;;;;;;;7.35;3.75;;;;;;;6.36;45.68;100458.53;5099421;27;20039;-60
2023/04/04 07:47:43;;;;;;;7.95;4.00;;;;;;;5.84;47.20;100454.91;5098345;28;20055;-59
2023/04/04 07:50:10;;;;;;;6.75;3.90;;;;;;;5.90;48.15;100453.38;5095923;28;20028;-60
2023/04/04 07:52:36;;;;;;;8.88;3.78;;;;;;;6.13;47.20;100448.81;5101701;28;20023;-60
2023/04/04 07:55:02;;;;;;;7.43;3.35;;;;;;;5.96;47.11;100452.66;5103168;28;20028;-60
2023/04/04 07:57:28;;;;;;;6.15;3.42;;;;;;;5.67;47.83;100440.97;5098500;28;20416;-60
2023/04/04 07:59:53;;;;;;;7.07;3.55;;;;;;;5.25;47.81;100450.28;5094225;28;20024;-59
2023/04/04 08:02:18;;;;;;;7.82;3.70;;;;;;;6.26;46.73;100440.19;5097243;28;20023;-60
2023/04/04 08:04:44;;;;;;;11.82;3.58;;;;;;;6.35;46.78;100444.41;5096220;28;20032;-60
2023/04/04 08:07:09;;;;;;;9.00;3.78;;;;;;;5.90;46.29;100448.06;5091567;28;20281;-60
2023/04/04 08:09:35;;;;;;;7.53;3.70;;;;;;;6.20;46.54;100447.06;5098568;28;20398;-60
2023/04/04 08:12:02;;;;;;;9.32;3.78;;;;;;;5.57;46.96;100457.16;5099860;28;20356;-60
2023/04/04 08:14:27;;;;;;;8.75;4.18;;;;;;;4.99;48.45;100450.63;5096135;28;20039;-60
2023/04/04 08:16:53;;;;;;;10.13;4.47;;;;;;;5.73;47.04;100444.72;5098391;28;20546;-59
2023/04/04 08:19:18;;;;;;;6.40;3.40;;;;;;;6.45;46.25;100438.81;5095399;28;20055;-61
2023/04/04 08:21:44;;;;;;;5.75;3.95;;;;;;;5.48;47.55;100438.81;5095162;28;20560;-61
2023/04/04 08:24:10;;;;;;;7.70;3.60;;;;;;;6.97;45.01;100448.41;5103369;28;20028;-62
2023/04/04 08:26:36;;;;;;;6.88;3.58;;;;;;;6.21;46.19;100440.72;5092471;28;20092;-61
2023/04/04 08:29:01;;;;;;;8.45;3.60;;;;;;;5.61;46.39;100436.34;5091844;28;20020;-61
2023/04/04 08:31:28;;;;;;;6.10;3.60;;;;;;;5.94;45.95;100433.38;5101155;28;20092;-60
2023/04/04 08:33:53;;;;;;;8.60;3.58;;;;;;;5.87;45.04;100438.59;5092687;28;20024;-60
2023/04/04 08:36:19;;;;;;;5.85;3.22;;;;;;;6.08;45.76;100435.25;5094574;28;20076;-59
2023/04/04 08:38:44;;;;;;;6.55;2.97;;;;;;;5.44;45.71;100448.94;5090320;28;20028;-60
2023/04/04 08:41:10;;;;;;;7.13;3.33;;;;;;;5.39;46.90;100441.53;5093390;28;20028;-60
2023/04/04 08:43:36;;;;;;;6.80;3.45;;;;;;;6.74;45.22;100429.94;5101814;28;20031;-59
2023/04/04 08:46:03;;;;;;;7.28;3.70;;;;;;;5.86;44.75;100428.94;5095084;28;20035;-60
2023/04/04 08:48:29;;;;;;;7.90;3.55;;;;;;;7.07;43.17;100421.47;5103291;28;20020;-60
2023/04/04 08:50:56;;;;;;;10.90;3.63;;;;;;;6.50;42.35;100423.09;5093605;28;20616;-60
2023/04/04 08:53:22;;;;;;;5.75;3.70;;;;;;;6.01;45.35;100424.47;5097311;28;20020;-62
2023/04/04 08:55:47;;;;;;;6.70;3.58;;;;;;;5.63;44.68;100424.50;5101812;28;20047;-59
2023/04/04 08:58:13;;;;;;;6.63;3.47;;;;;;;5.93;44.49;100426.41;5091234;28;20544;-60
2023/04/04 09:00:40;;;;;;;5.65;3.22;;;;;;;7.21;41.57;100425.88;5099299;28;20028;-58
2023/04/04 09:03:13;;;;;;;5.35;3.00;;;;;;;6.65;42.95;100420.41;5096528;28;20133;-59
2023/04/04 09:05:39;;;;;;;6.88;2.72;;;;;;;5.73;41.88;100423.44;5090914;28;20027;-59
2023/04/04 09:08:06;;;;;;;8.13;3.95;;;;;;;6.04;43.10;100433.94;5093752;28;20567;-58
2023/04/04 09:10:31;;;;;;;6.10;2.90;;;;;;;5.86;42.86;100425.47;5097385;28;20369;-59
2023/04/04 09:12:57;;;;;;;5.00;2.90;;;;;;;6.64;41.44;100419.56;5098739;28;20277;-59
2023/04/04 09:15:22;;;;;;;6.25;3.08;;;;;;;5.71;41.94;100426.25;5094234;28;20043;-59
2023/04/04 09:17:48;;;;;;;6.25;2.70;;;;;;;5.58;42.03;100418.09;5091504;28;20082;-59
2023/04/04 09:20:31;;;;;;;5.63;2.65;;;;;;;5.54;42.13;100419.44;5096798;28;20093;-59
2023/04/04 09:22:57;;;;;;;8.85;3.15;;;;;;;5.34;42.73;100417.31;5092894;28;20074;-59
2023/04/04 09:25:22;;;;;;;8.63;2.92;;;;;;;5.95;41.72;100405.78;5097679;28;20019;-60
2023/04/04 09:27:48;;;;;;;7.30;3.17;;;;;;;6.40;41.83;100406.56;5095028;28;20027;-59
2023/04/04 09:30:14;;;;;;;9.00;4.35;;;;;;;6.94;40.54;100410.63;5095578;28;20378;-59
2023/04/04 09:32:40;;;;;;;6.50;2.88;;;;;;;6.20;41.32;100401.81;5102658;28;20035;-59
2023/04/04 09:35:06;;;;;;;4.63;2.80;;;;;;;5.67;41.40;100413.53;5107061;28;20108;-59
2023/04/04 09:37:31;;;;;;;6.78;2.95;;;;;;;5.69;42.89;100401.72;5100981;28;20415;-59
2023/04/04 09:39:57;;;;;;;5.22;2.70;;;;;;;7.03;40.66;100394.34;5102237;28;20127;-59
2023/04/04 09:42:23;;;;;;;4.55;2.72;;;;;;;7.53;40.21;100389.81;5103037;28;20035;-60
2023/04/04 09:44:53;;;;;;;6.10;2.80;;;;;;;7.70;40.12;100402.88;5104966;28;20073;-60
2023/04/04 09:47:26;;;;;;;7.63;2.90;;;;;;;5.55;41.58;100405.97;5102193;28;20122;-60
2023/04/04 09:49:52;;;;;;;4.40;2.58;;;;;;;6.05;40.72;100396.50;5102937;28;20094;-60
2023/04/04 09:52:21;;;;;;;6.53;3.20;;;;;;;6.08;41.34;100408.63;5103373;28;20028;-61
2023/04/04 09:55:00;;;;;;;7.65;2.95;;;;;;;6.23;41.37;100409.44;5095833;28;20109;-61
2023/04/04 09:57:27;;;;;;;6.43;3.03;;;;;;;6.60;41.50;100402.31;5095814;28;20073;-61
2023/04/04 09:59:59;;;;;;;4.78;2.88;;;;;;;5.96;41.00;100410.91;5102769;28;20028;-61
2023/04/04 10:02:25;;;;;;;8.68;3.90;;;;;;;6.45;41.06;100407.66;5095599;28;20066;-61
2023/04/04 10:04:53;;;;;;;7.85;3.33;;;;;;;7.21;40.32;100411.72;5097650;28;20054;-59
2023/04/04 10:07:18;;;;;;;5.28;3.20;;;;;;;6.53;40.35;100408.56;5098434;28;20434;-59
2023/04/04 10:09:46;;;;;;;5.43;3.13;;;;;;;5.91;42.18;100412.44;5100049;28;20034;-59
2023/04/04 10:12:12;;;;;;;5.63;2.85;;;;;;;5.90;42.32;100402.81;5100789;28;20031;-59
2023/04/04 10:14:37;;;;;;;7.78;3.25;;;;;;;5.98;43.51;100413.41;5100388;28;20036;-59
2023/04/04 10:17:08;;;;;;;6.80;3.83;;;;;;;6.80;42.31;100412.34;5092320;28;20549;-60
2023/04/04 10:19:36;;;;;;;5.20;3.15;;;;;;;6.05;42.73;100409.00;5098760;28;20115;-60
2023/04/04 10:22:01;;;;;;;5.32;2.97;;;;;;;7.09;42.19;100401.59;5085569;28;20111;-60
2023/04/04 10:24:27;;;;;;;3.30;2.53;;;;;;;5.47;42.85;100399.94;5093456;28;20023;-59
2023/04/04 10:26:54;;;;;;;6.53;3.35;;;;;;;5.86;43.33;100398.84;5095593;28;20035;-59
2023/04/04 10:29:20;;;;;;;5.13;3.00;;;;;;;6.13;41.33;100403.56;5101537;28;20059;-61
2023/04/04 10:31:46;;;;;;;6.65;3.10;;;;;;;6.17;42.57;100399.53;5098683;28;20035;-59
2023/04/04 10:34:27;;;;;;;7.88;3.28;;;;;;;6.36;41.71;100397.28;5099323;28;20027;-59
2023/04/04 10:37:07;;;;;;;5.00;3.20;;;;;;;7.29;40.76;100393.75;5095385;28;20028;-58
2023/04/04 10:39:36;;;;;;;4.90;3.00;;;;;;;7.49;41.55;100393.09;5102912;28;20523;-61
2023/04/04 10:42:03;;;;;;;10.40;3.03;;;;;;;7.75;39.83;100387.94;5098589;28;20040;-61
2023/04/04 10:44:32;;;;;;;6.28;3.17;;;;;;;8.65;38.76;100398.66;5096143;28;20035;-58
2023/04/04 10:47:22;;;;;;;10.13;3.17;;;;;;;7.25;39.33;100399.66;5100220;28;20046;-62
2023/04/04 10:49:49;;;;;;;6.30;3.63;;;;;;;7.32;40.69;100389.88;5098741;28;20581;-60
2023/04/04 10:52:19;;;;;;;6.50;3.08;;;;;;;8.39;39.68;100384.19;5102608;28;20139;-60
2023/04/04 10:54:45;;;;;;;6.10;3.10;;;;;;;8.16;38.22;100396.97;5095700;28;20425;-60
2023/04/04 10:57:11;;;;;;;7.78;3.38;;;;;;;7.83;41.40;100384.28;5094285;28;20288;-61
2023/04/04 11:00:09;;;;;;;7.07;3.42;;;;;;;7.28;40.29;100388.59;5083857;28;20035;-60
2023/04/04 11:02:54;;;;;;;5.68;3.15;;;;;;;7.52;39.69;100374.84;5098134;28;20076;-60
2023/04/04 11:05:24;;;;;;;5.70;3.17;;;;;;;6.29;42.10;100373.28;5099998;28;20024;-60
2023/04/04 11:07:58;;;;;;;6.80;2.70;;;;;;;6.54;42.33;100391.56;5096690;28;21615;-59
2023/04/04 11:10:30;;;;;;;4.60;2.92;;;;;;;6.10;42.60;100369.34;5096568;28;20031;-60
2023/04/04 11:12:57;;;;;;;6.85;2.95;;;;;;;6.56;41.63;100366.38;5098329;28;20043;-60
2023/04/04 11:15:24;;;;;;;7.50;3.00;;;;;;;6.38;42.22;100358.00;5104922;28;20043;-59
2023/04/04 11:17:51;;;;;;;6.90;3.78;;;;;;;7.18;40.78;100358.78;5094012;28;20024;-60
2023/04/04 11:20:18;;;;;;;4.53;2.65;;;;;;;6.87;40.21;100354.63;5094722;28;20054;-60
2023/04/04 11:22:47;;;;;;;5.63;2.90;;;;;;;6.27;41.03;100359.31;5100863;28;20024;-61
2023/04/04 11:25:25;;;;;;;6.88;3.40;;;;;;;6.02;41.00;100356.97;5090407;28;20428;-60